Time;durP1;ratioP1;P1;durP2;ratioP2;P2;SDS_P1;SDS_P2;PMS_P1;PMS_P2;Temp;Humidity;BMP_temperature;BMP_pressure;BME280_temperature;BME280_humidity;BME280_pressure;Samples;Min_cycle;Max_cycle;Signal;HPM_P1;HPM_P2
2022/05/12 00:00:24;;;;;;;5.00;2.00;;;;;;;16.71;47.42;93086.28;2098487;28;20029;-80
2022/05/12 00:01:25;;;;;;;3.58;2.08;;;;;;;16.88;47.33;93089.41;2100525;28;20030;-81
2022/05/12 00:02:26;;;;;;;4.63;1.98;;;;;;;16.63;49.55;93091.25;2109485;28;20061;-82
2022/05/12 00:03:27;;;;;;;4.28;2.25;;;;;;;16.66;47.87;93089.63;2098586;28;20063;-81
2022/05/12 00:04:31;;;;;;;6.00;1.98;;;;;;;16.63;47.42;93085.13;2098611;28;20013;-81
2022/05/12 00:05:33;;;;;;;3.50;1.95;;;;;;;16.63;48.02;93087.81;2107305;28;20504;-82
2022/05/12 00:06:35;;;;;;;3.28;1.98;;;;;;;16.81;47.44;93084.34;2106834;28;20404;-79
2022/05/12 00:07:36;;;;;;;5.05;1.70;;;;;;;16.88;47.19;93094.06;2106978;28;20028;-81
2022/05/12 00:08:37;;;;;;;3.85;2.20;;;;;;;16.76;46.64;93083.00;2115355;28;20020;-80
2022/05/12 00:09:38;;;;;;;2.15;1.85;;;;;;;16.84;46.45;93094.22;2115468;28;20023;-82
2022/05/12 00:10:42;;;;;;;4.60;2.00;;;;;;;16.94;46.39;93097.63;2098529;28;20028;-81
2022/05/12 00:11:43;;;;;;;4.50;1.70;;;;;;;17.45;43.71;93081.31;2107699;27;20069;-82
2022/05/12 00:12:45;;;;;;;4.15;2.30;;;;;;;17.58;43.53;93087.22;2089999;28;20075;-79
2022/05/12 00:13:46;;;;;;;7.35;1.90;;;;;;;17.68;43.19;93087.16;2098260;28;20020;-81
2022/05/12 00:14:47;;;;;;;3.72;2.28;;;;;;;17.54;43.86;93097.47;2097936;28;20446;-80
2022/05/12 00:15:48;;;;;;;3.58;1.80;;;;;;;17.42;43.48;93087.63;2091649;28;20021;-82
2022/05/12 00:16:50;;;;;;;5.55;2.10;;;;;;;17.24;45.15;93085.03;2098619;28;20111;-80
2022/05/12 00:17:51;;;;;;;6.65;2.08;;;;;;;17.45;44.39;93080.56;2100159;28;20021;-81
2022/05/12 00:18:52;;;;;;;11.75;1.80;;;;;;;17.68;42.96;93087.16;2090054;28;20462;-80
2022/05/12 00:19:53;;;;;;;3.60;1.77;;;;;;;17.62;43.19;93093.22;2106922;28;20028;-80
2022/05/12 00:20:54;;;;;;;3.53;1.70;;;;;;;17.71;42.94;93097.06;2101378;28;20390;-82
2022/05/12 00:21:55;;;;;;;4.32;1.63;;;;;;;17.50;43.45;93096.16;2106972;28;20791;-80
2022/05/12 00:23:16;;;;;;;6.50;1.83;;;;;;;17.74;42.02;93096.94;2108741;28;20445;-80
2022/05/12 00:24:19;;;;;;;5.65;2.08;;;;;;;17.71;42.46;93100.50;2095601;28;20464;-82
2022/05/12 00:25:22;;;;;;;6.13;1.98;;;;;;;17.64;43.01;93092.75;2106589;28;20020;-80
2022/05/12 00:26:28;;;;;;;10.40;2.53;;;;;;;17.75;43.49;93098.41;2107748;28;20024;-80
2022/05/12 00:27:29;;;;;;;2.85;1.63;;;;;;;17.61;42.67;93096.38;2098346;28;20028;-81
2022/05/12 00:28:30;;;;;;;6.40;1.98;;;;;;;17.70;41.82;93096.31;2084732;28;20654;-82
2022/05/12 00:29:31;;;;;;;7.18;2.13;;;;;;;17.72;42.43;93104.72;2092621;28;20021;-80
2022/05/12 00:30:32;;;;;;;3.38;1.80;;;;;;;17.55;42.61;93087.41;2095805;28;20165;-81
2022/05/12 00:31:40;;;;;;;6.53;2.05;;;;;;;17.53;42.53;93087.13;2106619;28;20115;-81
2022/05/12 00:32:44;;;;;;;4.40;1.80;;;;;;;17.75;42.09;93092.25;2092028;28;20032;-80
2022/05/12 00:33:46;;;;;;;5.78;1.88;;;;;;;17.88;41.04;93102.84;2091228;28;20035;-79
2022/05/12 00:34:47;;;;;;;4.22;1.67;;;;;;;17.92;41.63;93082.50;2097961;28;20024;-82
2022/05/12 00:35:48;;;;;;;3.17;1.60;;;;;;;17.81;42.25;93088.44;2089864;28;20021;-83
2022/05/12 00:36:49;;;;;;;3.72;1.65;;;;;;;17.63;43.14;93102.81;2091591;28;20111;-82
2022/05/12 00:37:50;;;;;;;2.88;1.70;;;;;;;17.80;41.63;93086.94;2113466;28;20024;-82
2022/05/12 00:38:51;;;;;;;6.30;1.92;;;;;;;17.80;41.72;93083.50;2106295;28;20063;-81
2022/05/12 00:39:52;;;;;;;3.35;1.85;;;;;;;17.75;42.99;93087.59;2110809;28;20061;-81
2022/05/12 00:40:53;;;;;;;4.15;1.65;;;;;;;17.66;42.12;93095.00;2101068;28;20046;-80
2022/05/12 00:41:54;;;;;;;3.47;1.83;;;;;;;17.65;42.38;93088.84;2115180;27;20032;-79
2022/05/12 00:43:01;;;;;;;6.82;2.00;;;;;;;17.94;41.23;93099.00;2113226;28;20046;-80
2022/05/12 00:44:05;;;;;;;4.03;1.70;;;;;;;17.83;42.20;93085.28;2106391;28;20032;-79
2022/05/12 00:45:06;;;;;;;5.13;1.75;;;;;;;17.75;42.27;93092.25;2123566;27;20460;-79
2022/05/12 00:46:36;;;;;;;5.38;1.98;;;;;;;17.58;43.80;93094.59;2124050;27;20039;-80
2022/05/12 00:47:37;;;;;;;7.90;1.98;;;;;;;17.42;43.25;93084.94;2114240;28;20387;-81
2022/05/12 00:48:39;;;;;;;4.03;1.90;;;;;;;17.40;43.89;93090.06;2098105;28;20040;-80
2022/05/12 00:49:41;;;;;;;6.80;2.08;;;;;;;17.25;44.08;93097.34;2097687;28;20029;-80
2022/05/12 00:50:44;;;;;;;5.30;2.22;;;;;;;17.43;43.00;93091.84;2098907;28;20387;-80
2022/05/12 00:52:16;;;;;;;6.57;1.80;;;;;;;17.46;43.93;93099.00;2098180;28;20056;-80
2022/05/12 00:53:17;;;;;;;2.45;1.60;;;;;;;17.47;43.94;93095.13;2103234;28;20036;-82
2022/05/12 00:54:26;;;;;;;10.30;1.88;;;;;;;17.20;45.33;93092.56;2104820;28;20027;-81
2022/05/12 00:55:38;;;;;;;3.17;1.92;;;;;;;17.08;44.95;93094.28;2100282;28;20071;-80
2022/05/12 00:56:40;;;;;;;3.22;1.80;;;;;;;17.15;44.61;93096.63;2116315;27;20491;-82
2022/05/12 00:57:51;;;;;;;4.97;2.33;;;;;;;17.18;45.39;93103.09;2114989;27;20027;-80
2022/05/12 00:58:57;;;;;;;5.00;2.25;;;;;;;17.15;45.48;93095.91;2107261;27;20107;-81
2022/05/12 00:59:58;;;;;;;5.57;2.13;;;;;;;17.03;46.24;93098.38;2100024;28;20484;-82
2022/05/12 01:01:03;;;;;;;4.07;2.25;;;;;;;17.06;46.27;93097.44;2098501;28;20062;-81
2022/05/12 01:02:10;;;;;;;2.67;1.98;;;;;;;17.00;47.33;93095.81;2120010;27;20022;-80
2022/05/12 01:03:19;;;;;;;3.55;1.92;;;;;;;16.86;47.32;93091.84;2115011;28;20110;-80
2022/05/12 01:04:22;;;;;;;2.13;1.92;;;;;;;16.75;47.90;93094.25;2105156;28;20428;-80
2022/05/12 01:05:24;;;;;;;5.30;2.05;;;;;;;16.81;47.66;93095.13;2098071;28;20024;-80
2022/05/12 01:06:25;;;;;;;5.88;2.00;;;;;;;16.85;47.56;93090.31;2090015;28;20033;-82
2022/05/12 01:07:27;;;;;;;4.65;2.13;;;;;;;16.73;47.85;93086.63;2098257;28;20488;-79
2022/05/12 01:08:28;;;;;;;3.80;1.80;;;;;;;16.98;47.67;93098.97;2112859;28;20023;-81
2022/05/12 01:09:31;;;;;;;4.35;2.15;;;;;;;17.02;47.48;93102.25;2117118;27;20020;-81
2022/05/12 01:10:32;;;;;;;4.65;1.73;;;;;;;16.94;47.38;93092.97;2106312;28;20096;-80
2022/05/12 01:11:34;;;;;;;3.58;2.08;;;;;;;17.24;46.68;93093.88;2098096;28;20514;-81
2022/05/12 01:12:43;;;;;;;10.30;2.10;;;;;;;16.98;47.81;93098.97;2098347;28;20028;-81
2022/05/12 01:13:50;;;;;;;5.07;2.30;;;;;;;16.94;48.45;93103.78;2106113;28;20044;-82
2022/05/12 01:14:51;;;;;;;5.30;2.55;;;;;;;16.86;48.75;93097.25;2105758;28;20027;-81
2022/05/12 01:16:00;;;;;;;6.10;2.45;;;;;;;16.82;49.53;93102.06;2089764;28;20071;-81
2022/05/12 01:17:02;;;;;;;5.97;2.40;;;;;;;16.67;50.44;93096.50;2092019;28;20112;-79
2022/05/12 01:18:10;;;;;;;3.80;2.20;;;;;;;16.59;50.22;93096.09;2098555;28;20373;-80
2022/05/12 01:19:20;;;;;;;3.70;2.00;;;;;;;16.53;50.79;93100.59;2099163;28;20024;-79
2022/05/12 01:20:21;;;;;;;5.65;2.15;;;;;;;16.51;50.83;93092.22;2098616;28;20020;-81
2022/05/12 01:21:23;;;;;;;4.10;2.42;;;;;;;16.59;50.09;93103.41;2106367;28;20476;-79
2022/05/12 01:22:43;;;;;;;4.03;2.40;;;;;;;16.57;51.30;93095.03;2106571;28;20512;-79
2022/05/12 01:23:44;;;;;;;5.28;2.15;;;;;;;16.72;50.03;93104.00;2109162;28;20032;-80
2022/05/12 01:24:45;;;;;;;7.28;1.98;;;;;;;16.60;49.98;93105.69;2114482;28;20118;-82
2022/05/12 01:25:46;;;;;;;3.25;2.05;;;;;;;16.56;50.84;93096.25;2097400;28;20025;-80
2022/05/12 01:26:47;;;;;;;6.00;2.30;;;;;;;16.48;50.70;93095.81;2097639;28;20508;-79
2022/05/12 01:27:49;;;;;;;9.57;2.67;;;;;;;16.66;50.55;93099.66;2106396;28;20500;-79
2022/05/12 01:28:50;;;;;;;3.92;2.33;;;;;;;16.54;50.70;93094.00;2106293;28;20484;-81
2022/05/12 01:29:56;;;;;;;5.93;2.30;;;;;;;16.52;50.67;93098.38;2098139;28;20557;-80
2022/05/12 01:30:59;;;;;;;4.32;2.25;;;;;;;16.61;50.44;93099.06;2090930;28;20025;-82
2022/05/12 01:32:00;;;;;;;5.00;2.33;;;;;;;16.53;50.36;93097.91;2098497;28;20089;-81
2022/05/12 01:33:01;;;;;;;7.47;2.20;;;;;;;16.62;51.14;93105.97;2098068;28;20040;-81
2022/05/12 01:34:06;;;;;;;3.75;2.35;;;;;;;16.42;52.24;93100.34;2089702;28;20079;-79
2022/05/12 01:35:07;;;;;;;4.53;2.53;;;;;;;16.41;51.22;93108.88;2090779;28;20480;-82
2022/05/12 01:36:08;;;;;;;4.40;2.08;;;;;;;16.48;51.30;93111.25;2081242;28;20516;-82
2022/05/12 01:37:10;;;;;;;5.43;1.90;;;;;;;16.49;52.07;93113.50;2082059;28;20025;-81
2022/05/12 01:38:18;;;;;;;2.65;2.10;;;;;;;16.54;50.81;93109.44;2089151;28;20039;-80
2022/05/12 01:39:19;;;;;;;2.47;2.05;;;;;;;16.49;51.71;93107.34;2090808;28;20120;-81
2022/05/12 01:40:22;;;;;;;4.20;2.40;;;;;;;16.43;52.22;93104.53;2089701;28;20524;-80
2022/05/12 01:41:23;;;;;;;2.72;2.20;;;;;;;16.39;52.13;93101.22;2105876;28;20027;-81
2022/05/12 01:42:26;;;;;;;3.97;2.30;;;;;;;16.35;52.29;93114.88;2098061;28;20038;-81
2022/05/12 01:43:27;;;;;;;2.95;2.22;;;;;;;16.25;54.37;93115.34;2098142;28;20111;-81
2022/05/12 01:44:28;;;;;;;5.22;2.30;;;;;;;16.25;53.31;93113.41;2098106;28;20046;-80
2022/05/12 01:45:29;;;;;;;8.63;2.22;;;;;;;16.10;53.82;93117.91;2114752;28;20116;-80
2022/05/12 01:46:30;;;;;;;8.15;2.50;;;;;;;16.02;54.67;93116.69;2108318;28;20100;-81
2022/05/12 01:47:31;;;;;;;5.35;2.10;;;;;;;15.99;55.22;93120.31;2101614;28;20118;-80
2022/05/12 01:48:33;;;;;;;4.28;2.35;;;;;;;16.18;54.47;93107.56;2106419;28;20020;-80
2022/05/12 01:49:34;;;;;;;2.45;2.25;;;;;;;16.21;54.18;93120.16;2105702;28;20514;-80
2022/05/12 01:50:36;;;;;;;5.18;2.42;;;;;;;16.24;54.27;93125.41;2105918;28;20039;-80
2022/05/12 01:51:38;;;;;;;3.15;2.70;;;;;;;16.09;54.76;93119.84;2106284;28;20111;-80
2022/05/12 01:52:43;;;;;;;5.50;2.38;;;;;;;16.00;55.11;93119.84;2106691;28;20020;-81
2022/05/12 01:53:44;;;;;;;10.63;2.45;;;;;;;16.04;55.29;93117.00;2106836;28;20023;-81
2022/05/12 01:54:45;;;;;;;6.97;2.47;;;;;;;16.08;54.71;93123.00;2097825;28;20024;-81
2022/05/12 01:55:49;;;;;;;3.55;2.38;;;;;;;15.97;55.38;93128.84;2097312;28;20024;-82
2022/05/12 01:56:51;;;;;;;3.92;2.33;;;;;;;15.94;55.41;93121.66;2098912;28;20051;-81
2022/05/12 01:57:52;;;;;;;5.82;1.98;;;;;;;15.96;56.24;93127.34;2104633;28;20107;-81
2022/05/12 01:58:59;;;;;;;12.18;2.33;;;;;;;15.88;56.36;93125.41;2099132;28;20108;-80
2022/05/12 02:00:00;;;;;;;9.55;2.40;;;;;;;15.79;57.01;93128.84;2088877;28;20428;-80
2022/05/12 02:01:01;;;;;;;4.10;2.38;;;;;;;15.78;56.79;93128.09;2089108;28;20033;-79
2022/05/12 02:02:03;;;;;;;3.25;2.53;;;;;;;15.72;57.25;93134.53;2094616;28;20073;-82
2022/05/12 02:03:04;;;;;;;4.78;2.35;;;;;;;15.64;58.56;93134.06;2081447;28;20061;-79
2022/05/12 02:04:05;;;;;;;3.55;2.20;;;;;;;15.53;58.85;93139.84;2089492;28;20024;-80
2022/05/12 02:05:09;;;;;;;3.58;2.40;;;;;;;15.76;59.18;93125.09;2089384;28;20575;-81
2022/05/12 02:06:10;;;;;;;9.02;2.63;;;;;;;15.60;58.81;93133.44;2090063;28;20528;-81
2022/05/12 02:07:11;;;;;;;4.20;2.35;;;;;;;15.69;57.92;93127.34;2097532;28;20020;-80
2022/05/12 02:08:14;;;;;;;4.35;2.45;;;;;;;15.72;59.07;93123.75;2097788;28;20032;-81
2022/05/12 02:09:16;;;;;;;6.97;2.20;;;;;;;15.60;59.24;93131.47;2097860;28;20016;-82
2022/05/12 02:10:22;;;;;;;4.75;2.95;;;;;;;15.55;61.08;93129.38;2098455;28;20135;-80
2022/05/12 02:11:24;;;;;;;3.72;2.42;;;;;;;15.66;58.95;93126.28;2109245;27;20028;-82
2022/05/12 02:12:25;;;;;;;5.55;2.83;;;;;;;15.65;59.97;93130.16;2122879;27;20440;-81
2022/05/12 02:13:27;;;;;;;4.70;2.22;;;;;;;15.53;59.93;93133.72;2122247;27;20047;-82
2022/05/12 02:14:28;;;;;;;7.75;2.83;;;;;;;15.43;61.06;93134.91;2105562;28;20031;-81
2022/05/12 02:15:29;;;;;;;5.03;2.20;;;;;;;15.32;62.56;93129.91;2114387;28;20019;-82
2022/05/12 02:16:31;;;;;;;4.45;2.90;;;;;;;15.19;64.13;93138.13;2105927;28;20024;-82
2022/05/12 02:17:32;;;;;;;5.45;2.35;;;;;;;15.35;63.54;93129.03;2106248;28;20551;-81
2022/05/12 02:18:34;;;;;;;6.65;2.50;;;;;;;15.23;63.20;93136.06;2106198;28;20418;-81
2022/05/12 02:19:36;;;;;;;3.40;2.38;;;;;;;15.14;65.51;93146.03;2106270;28;20089;-81
2022/05/12 02:20:37;;;;;;;3.80;2.72;;;;;;;14.93;67.53;93132.22;2114669;28;20027;-82
2022/05/12 02:21:38;;;;;;;4.30;2.45;;;;;;;14.86;67.92;93137.84;2114316;28;20027;-81
2022/05/12 02:22:40;;;;;;;3.60;2.30;;;;;;;14.77;68.19;93140.50;2122791;27;20034;-81
2022/05/12 02:23:41;;;;;;;3.22;2.47;;;;;;;14.66;68.99;93145.53;2114639;28;20028;-79
2022/05/12 02:24:42;;;;;;;4.55;2.58;;;;;;;14.59;69.74;93141.91;2106068;28;20016;-80
2022/05/12 02:25:43;;;;;;;7.25;3.00;;;;;;;14.48;70.90;93141.53;2113920;28;20073;-82
2022/05/12 02:26:44;;;;;;;6.47;2.55;;;;;;;14.45;71.90;93144.34;2114116;28;20028;-82
2022/05/12 02:27:46;;;;;;;6.40;2.60;;;;;;;14.35;71.90;93140.84;2097253;28;20021;-81
2022/05/12 02:28:47;;;;;;;4.40;2.47;;;;;;;14.21;73.99;93144.78;2089303;28;20032;-81
2022/05/12 02:29:48;;;;;;;4.18;2.45;;;;;;;14.11;74.05;93151.28;2081060;28;20123;-82
2022/05/12 02:30:57;;;;;;;3.67;2.38;;;;;;;14.31;72.69;93150.97;2098747;28;20051;-81
2022/05/12 02:31:57;;;;;;;7.82;2.72;;;;;;;14.53;68.26;93146.38;2105965;28;20016;-81
2022/05/12 02:32:58;;;;;;;6.68;2.53;;;;;;;14.38;70.96;93139.97;2093373;28;20029;-80
2022/05/12 02:34:00;;;;;;;8.27;2.88;;;;;;;14.25;72.69;93153.47;2105912;28;20020;-82
2022/05/12 02:35:01;;;;;;;4.32;2.65;;;;;;;14.26;72.79;93148.84;2114255;28;20027;-82
2022/05/12 02:36:02;;;;;;;9.18;2.55;;;;;;;14.18;72.96;93151.06;2114431;28;20024;-81
2022/05/12 02:37:05;;;;;;;6.25;2.63;;;;;;;14.09;74.92;93151.72;2106020;28;20028;-81
2022/05/12 02:38:07;;;;;;;4.97;2.30;;;;;;;13.99;75.08;93157.47;2113765;28;20067;-81
2022/05/12 02:39:08;;;;;;;6.10;2.70;;;;;;;13.81;76.98;93155.38;2106003;28;20429;-81
2022/05/12 02:40:19;;;;;;;4.82;2.33;;;;;;;13.77;75.82;93165.47;2097641;28;20036;-80
2022/05/12 02:41:20;;;;;;;4.55;2.75;;;;;;;13.73;77.10;93159.47;2090341;28;20136;-81
2022/05/12 02:42:22;;;;;;;8.48;2.58;;;;;;;13.83;76.80;93159.13;2097726;28;20488;-80
2022/05/12 02:43:25;;;;;;;7.68;2.60;;;;;;;13.67;78.08;93159.28;2113894;28;20369;-80
2022/05/12 02:44:26;;;;;;;4.60;2.90;;;;;;;13.63;78.51;93158.66;2097491;28;20040;-79
2022/05/12 02:45:28;;;;;;;6.07;2.75;;;;;;;13.49;80.86;93162.56;2089368;28;20487;-80
2022/05/12 02:46:29;;;;;;;6.30;2.47;;;;;;;13.64;78.72;93159.41;2097622;28;20046;-80
2022/05/12 02:47:30;;;;;;;5.75;2.95;;;;;;;13.54;78.85;93156.63;2089071;28;20420;-80
2022/05/12 02:48:34;;;;;;;3.58;2.70;;;;;;;13.39;80.60;93155.59;2084475;28;20029;-81
2022/05/12 02:49:36;;;;;;;6.05;2.50;;;;;;;13.35;81.27;93158.38;2105414;28;20071;-81
2022/05/12 02:50:37;;;;;;;3.13;2.83;;;;;;;13.37;80.40;93157.19;2097212;28;20445;-82
2022/05/12 02:51:37;;;;;;;3.78;2.75;;;;;;;13.20;82.00;93156.53;2089009;28;20020;-80
2022/05/12 02:52:38;;;;;;;5.22;2.30;;;;;;;13.11;83.60;93160.63;2097341;28;20047;-81
2022/05/12 02:53:41;;;;;;;4.15;2.28;;;;;;;13.26;82.32;93162.91;2100963;28;20023;-82
2022/05/12 02:54:42;;;;;;;6.47;2.80;;;;;;;13.13;82.37;93154.09;2113272;28;20431;-81
2022/05/12 02:55:43;;;;;;;4.65;2.38;;;;;;;12.97;83.97;93154.94;2105665;28;20024;-82
2022/05/12 02:56:44;;;;;;;9.50;3.55;;;;;;;12.98;84.58;93161.81;2089073;28;20060;-81
2022/05/12 02:57:45;;;;;;;4.22;2.70;;;;;;;12.91;84.87;93156.66;2086633;28;20025;-80
2022/05/12 02:58:45;;;;;;;3.17;2.65;;;;;;;12.96;85.18;93164.94;2102439;28;20055;-80
2022/05/12 02:59:46;;;;;;;4.35;2.83;;;;;;;13.01;84.83;93169.75;2097047;28;20082;-81
2022/05/12 03:00:47;;;;;;;2.63;2.40;;;;;;;12.82;86.05;93176.09;2088951;28;20091;-81
2022/05/12 03:01:48;;;;;;;4.30;2.88;;;;;;;12.81;85.82;93174.56;2094730;28;20492;-81
2022/05/12 03:02:49;;;;;;;2.85;2.55;;;;;;;12.76;86.67;93173.16;2102042;28;20032;-81
2022/05/12 03:03:50;;;;;;;7.85;2.33;;;;;;;12.70;87.27;93171.47;2122553;28;20035;-80
2022/05/12 03:04:51;;;;;;;4.00;2.72;;;;;;;12.76;86.88;93178.53;2116835;28;20020;-80
2022/05/12 03:05:53;;;;;;;6.85;3.10;;;;;;;12.65;87.21;93172.75;2113990;28;20047;-80
2022/05/12 03:06:54;;;;;;;6.05;2.50;;;;;;;12.60;88.30;93179.38;2097289;28;20120;-80
2022/05/12 03:07:55;;;;;;;5.90;2.60;;;;;;;12.69;87.13;93175.31;2090451;28;20017;-81
2022/05/12 03:09:30;;;;;;;8.02;2.97;;;;;;;12.56;88.51;93172.63;2098767;28;20070;-81
2022/05/12 03:10:33;;;;;;;7.15;2.92;;;;;;;12.71;88.47;93175.63;2117081;27;20047;-80
2022/05/12 03:11:35;;;;;;;5.25;2.90;;;;;;;12.57;88.79;93179.47;2115747;28;20027;-82
2022/05/12 03:12:36;;;;;;;6.38;3.08;;;;;;;12.63;88.95;93185.06;2107644;28;20024;-81
2022/05/12 03:13:37;;;;;;;6.97;3.03;;;;;;;12.40;89.90;93184.16;2115183;28;20645;-81
2022/05/12 03:14:38;;;;;;;4.18;2.67;;;;;;;12.40;90.22;93184.16;2106233;28;20016;-80
2022/05/12 03:15:39;;;;;;;3.03;2.72;;;;;;;12.39;89.92;93188.03;2107299;28;20020;-81
2022/05/12 03:16:40;;;;;;;3.10;2.80;;;;;;;12.40;90.33;93189.53;2099087;28;20078;-81
2022/05/12 03:17:45;;;;;;;6.55;3.08;;;;;;;12.33;91.38;93189.69;2099053;28;20073;-82
2022/05/12 03:18:49;;;;;;;7.57;3.88;;;;;;;12.30;91.00;93196.69;2100313;27;20549;-81
2022/05/12 03:19:50;;;;;;;6.68;3.33;;;;;;;12.27;90.73;93202.13;2107759;28;20124;-81
2022/05/12 03:20:51;;;;;;;9.30;3.33;;;;;;;12.26;91.65;93197.94;2107255;28;20031;-82
2022/05/12 03:21:52;;;;;;;5.20;3.22;;;;;;;12.37;91.14;93195.72;2115921;28;20027;-81
2022/05/12 03:22:53;;;;;;;7.13;3.60;;;;;;;12.31;91.41;93202.78;2118570;27;20467;-81
2022/05/12 03:23:54;;;;;;;6.22;3.10;;;;;;;12.21;92.22;93196.53;2115560;28;20430;-82
2022/05/12 03:24:55;;;;;;;5.05;3.10;;;;;;;12.20;91.81;93199.63;2107157;28;20052;-80
2022/05/12 03:25:56;;;;;;;7.38;3.38;;;;;;;12.19;92.37;93196.19;2108197;28;20020;-80
2022/05/12 03:26:57;;;;;;;4.85;2.92;;;;;;;12.19;93.14;93198.13;2107346;28;20035;-80
2022/05/12 03:27:59;;;;;;;4.53;2.80;;;;;;;12.17;92.53;93201.25;2107337;28;20019;-80
2022/05/12 03:29:00;;;;;;;3.00;2.60;;;;;;;12.14;92.86;93207.44;2106809;27;20024;-81
2022/05/12 03:30:03;;;;;;;3.50;2.80;;;;;;;12.04;94.31;93206.56;2115527;28;20531;-79
2022/05/12 03:31:05;;;;;;;7.57;3.20;;;;;;;11.95;95.62;93200.28;2093618;28;20078;-81
2022/05/12 03:32:14;;;;;;;3.20;2.50;;;;;;;11.97;95.80;93201.38;2090746;28;20381;-79
2022/05/12 03:33:15;;;;;;;5.32;3.00;;;;;;;12.07;95.42;93194.22;2108742;27;20118;-82
2022/05/12 03:34:16;;;;;;;6.43;2.90;;;;;;;12.02;95.14;93200.09;2115849;28;20023;-80
2022/05/12 03:35:18;;;;;;;4.43;3.35;;;;;;;12.04;94.38;93198.50;2098754;28;20048;-80
2022/05/12 03:36:19;;;;;;;5.13;3.40;;;;;;;12.19;94.08;93206.16;2106498;28;20031;-80
2022/05/12 03:37:20;;;;;;;6.75;3.47;;;;;;;12.00;95.95;93195.16;2101025;28;20034;-80
2022/05/12 03:38:21;;;;;;;6.90;3.30;;;;;;;11.98;95.12;93202.13;2098185;28;20025;-82
2022/05/12 03:39:23;;;;;;;6.05;3.65;;;;;;;11.96;96.20;93201.78;2090558;28;20021;-79
2022/05/12 03:40:24;;;;;;;6.65;3.00;;;;;;;11.96;96.37;93207.16;2107151;28;20422;-81
2022/05/12 03:41:25;;;;;;;4.97;2.92;;;;;;;11.99;96.39;93209.00;2100560;28;20496;-81
2022/05/12 03:42:26;;;;;;;6.32;3.00;;;;;;;11.97;96.65;93201.38;2098884;28;20029;-82
2022/05/12 03:44:47;;;;;;;4.93;3.30;;;;;;;11.93;97.86;93202.63;2124183;27;20479;-81
2022/05/12 03:45:48;;;;;;;6.00;3.50;;;;;;;11.83;98.13;93205.16;2121599;27;20023;-82
2022/05/12 03:46:49;;;;;;;8.00;4.00;;;;;;;11.76;98.31;93202.63;2107108;28;20165;-79
2022/05/12 03:47:50;;;;;;;9.07;3.58;;;;;;;11.72;99.29;93203.88;2115547;28;20024;-80
2022/05/12 03:48:51;;;;;;;7.22;3.47;;;;;;;11.77;99.73;93203.41;2115540;28;20103;-81
2022/05/12 03:49:57;;;;;;;12.68;4.25;;;;;;;11.70;100.00;93212.34;2106748;28;20438;-79
2022/05/12 03:50:58;;;;;;;6.93;4.05;;;;;;;11.84;99.14;93209.34;2105642;28;20032;-79
2022/05/12 03:51:59;;;;;;;7.80;3.60;;;;;;;11.75;100.00;93209.16;2098796;28;20377;-80
2022/05/12 03:53:06;;;;;;;5.78;3.45;;;;;;;11.65;100.00;93212.84;2090575;28;20469;-81
2022/05/12 03:54:07;;;;;;;6.72;3.92;;;;;;;11.63;100.00;93215.19;2084071;28;20063;-81
2022/05/12 03:55:11;;;;;;;4.35;3.30;;;;;;;11.66;100.00;93211.69;2098716;28;20028;-81
2022/05/12 03:56:12;;;;;;;4.50;3.53;;;;;;;11.67;100.00;93209.75;2098645;28;20020;-81
2022/05/12 03:57:15;;;;;;;6.93;3.60;;;;;;;11.63;100.00;93214.44;2090450;28;20017;-79
2022/05/12 03:58:16;;;;;;;5.65;3.45;;;;;;;11.61;100.00;93217.53;2114384;28;20031;-79
2022/05/12 03:59:17;;;;;;;5.25;3.55;;;;;;;11.70;100.00;93220.38;2098836;28;20107;-81
2022/05/12 04:00:21;;;;;;;6.32;3.67;;;;;;;11.59;100.00;93220.66;2111763;28;20082;-82
2022/05/12 04:01:22;;;;;;;6.35;3.42;;;;;;;11.52;100.00;93223.47;2107127;28;20051;-80
2022/05/12 04:02:24;;;;;;;7.43;3.25;;;;;;;11.59;100.00;93223.31;2106522;28;20016;-81
2022/05/12 04:03:26;;;;;;;8.18;2.97;;;;;;;11.49;100.00;93224.31;2115677;27;20030;-81
2022/05/12 04:04:27;;;;;;;10.85;3.67;;;;;;;11.35;100.00;93224.66;2115444;28;20082;-80
2022/05/12 04:05:31;;;;;;;5.05;3.25;;;;;;;11.49;100.00;93226.22;2098444;28;20052;-81
2022/05/12 04:06:32;;;;;;;5.15;3.20;;;;;;;11.57;100.00;93227.56;2099211;28;20016;-80
2022/05/12 04:07:33;;;;;;;10.80;3.17;;;;;;;11.54;100.00;93226.47;2099614;28;20025;-81
2022/05/12 04:08:34;;;;;;;4.80;3.15;;;;;;;11.43;100.00;93226.00;2090412;28;20028;-79
2022/05/12 04:09:35;;;;;;;8.13;3.72;;;;;;;11.72;100.00;93225.31;2107145;28;20070;-81
2022/05/12 04:10:36;;;;;;;4.95;3.30;;;;;;;11.47;100.00;93225.91;2106749;28;20134;-81
2022/05/12 04:11:37;;;;;;;4.55;3.33;;;;;;;11.35;100.00;93235.34;2098637;28;20029;-82
2022/05/12 04:12:38;;;;;;;4.30;3.22;;;;;;;11.27;100.00;93234.00;2109146;28;20028;-80
2022/05/12 04:13:43;;;;;;;4.10;3.00;;;;;;;11.27;100.00;93237.44;2115401;28;20044;-82
2022/05/12 04:14:44;;;;;;;6.32;3.58;;;;;;;11.25;100.00;93231.00;2097957;28;20416;-81
2022/05/12 04:15:46;;;;;;;3.58;3.00;;;;;;;11.27;100.00;93232.06;2090302;28;20029;-81
2022/05/12 04:16:47;;;;;;;5.60;3.38;;;;;;;11.50;100.00;93233.88;2098721;28;20047;-80
2022/05/12 04:18:06;;;;;;;5.63;3.33;;;;;;;11.36;100.00;93239.53;2098862;28;20423;-80
2022/05/12 04:19:07;;;;;;;3.67;3.10;;;;;;;11.30;100.00;93238.53;2100862;28;20024;-81
2022/05/12 04:20:12;;;;;;;5.22;3.53;;;;;;;11.20;100.00;93239.53;2118816;27;20019;-81
2022/05/12 04:21:13;;;;;;;4.47;3.25;;;;;;;11.39;100.00;93237.94;2125590;27;20026;-80
2022/05/12 04:22:14;;;;;;;4.07;3.35;;;;;;;11.25;100.00;93234.44;2123578;27;20015;-79
2022/05/12 04:23:15;;;;;;;6.10;3.20;;;;;;;11.18;100.00;93239.19;2098828;28;20511;-81
2022/05/12 04:24:16;;;;;;;5.25;3.25;;;;;;;11.18;100.00;93241.84;2083951;28;20120;-80
2022/05/12 04:25:17;;;;;;;9.20;3.60;;;;;;;11.16;100.00;93242.28;2090186;28;20047;-81
2022/05/12 04:26:18;;;;;;;6.60;3.72;;;;;;;11.23;100.00;93241.34;2097546;28;20028;-80
2022/05/12 04:27:19;;;;;;;4.43;3.17;;;;;;;11.18;100.00;93241.84;2098534;28;20020;-80
2022/05/12 04:28:20;;;;;;;3.53;3.20;;;;;;;11.20;100.00;93244.88;2089909;28;20033;-79
2022/05/12 04:29:22;;;;;;;5.68;3.25;;;;;;;11.29;100.00;93253.09;2098571;28;20035;-81
2022/05/12 04:30:25;;;;;;;8.85;3.72;;;;;;;11.19;100.00;93259.41;2099610;28;20111;-82
2022/05/12 04:31:26;;;;;;;4.53;3.20;;;;;;;11.15;100.00;93254.16;2109705;28;20026;-80
2022/05/12 04:32:28;;;;;;;5.22;3.40;;;;;;;11.18;100.00;93255.97;2115371;28;20407;-80
2022/05/12 04:36:09;;;;;;;6.55;3.72;;;;;;;11.12;100.00;93263.00;2125374;27;20476;-80
2022/05/12 04:37:10;;;;;;;7.70;3.60;;;;;;;11.06;100.00;93268.09;2123488;27;20019;-80
2022/05/12 04:38:11;;;;;;;5.38;3.63;;;;;;;11.09;100.00;93269.91;2106032;28;20031;-81
2022/05/12 04:39:12;;;;;;;5.05;3.40;;;;;;;11.23;100.00;93268.84;2106790;28;20028;-80
2022/05/12 04:40:30;;;;;;;7.10;3.70;;;;;;;11.16;100.00;93273.63;2106792;28;20115;-81
2022/05/12 04:41:31;;;;;;;5.47;3.45;;;;;;;11.15;100.00;93275.56;2098442;28;20058;-79
2022/05/12 04:42:32;;;;;;;7.00;3.60;;;;;;;11.21;100.00;93278.50;2089890;28;20021;-79
2022/05/12 04:43:34;;;;;;;5.20;3.40;;;;;;;11.14;100.00;93282.06;2084892;28;20475;-81
2022/05/12 04:44:35;;;;;;;6.55;3.22;;;;;;;11.19;100.00;93284.22;2098550;28;20103;-81
2022/05/12 04:45:36;;;;;;;4.28;3.40;;;;;;;11.15;100.00;93283.59;2098281;28;20028;-81
2022/05/12 04:46:38;;;;;;;6.10;3.72;;;;;;;11.17;100.00;93272.47;2098249;28;20097;-81
2022/05/12 04:47:41;;;;;;;5.60;3.90;;;;;;;11.20;100.00;93283.09;2106778;28;20084;-81
2022/05/12 04:48:42;;;;;;;5.68;3.47;;;;;;;11.31;100.00;93269.47;2098624;28;20032;-80
2022/05/12 04:49:43;;;;;;;4.75;3.45;;;;;;;11.33;100.00;93272.50;2089583;28;20025;-82
2022/05/12 04:50:44;;;;;;;6.90;3.47;;;;;;;11.33;100.00;93283.19;2089792;28;20043;-81
2022/05/12 04:51:45;;;;;;;8.25;3.58;;;;;;;11.31;100.00;93280.91;2115191;28;20027;-80
2022/05/12 04:52:47;;;;;;;5.07;3.63;;;;;;;11.35;100.00;93268.22;2114834;28;20051;-80
2022/05/12 04:53:48;;;;;;;7.78;3.70;;;;;;;11.45;100.00;93271.06;2106351;28;20071;-81
2022/05/12 04:54:49;;;;;;;6.97;3.55;;;;;;;11.46;100.00;93264.56;2104473;28;20550;-79
2022/05/12 04:55:51;;;;;;;5.15;4.18;;;;;;;11.55;100.00;93270.84;2106524;28;20060;-80
2022/05/12 04:56:52;;;;;;;6.65;3.90;;;;;;;11.50;100.00;93270.56;2098664;28;20579;-81
2022/05/12 04:57:55;;;;;;;4.20;3.80;;;;;;;11.49;100.00;93272.50;2114921;28;20053;-79